Terminal Aerodrome Forecast
Issued by NWS

Current Version | Previous Version | Text Only | Print | Product List | Glossary Off
Versions: 1 2 3 4 5 6 7 8 9 10 11 12 13 14 15 16 17 18 19

000
FTUS41 KILN 152059 AAA
TAFLUK
TAF AMD
KLUK 152059Z 1521/1618 25013KT P6SM OVC035
      TEMPO 1521/1522 BKN025
     FM160000 24007KT P6SM FEW050 SCT100
     FM161400 21012G18KT P6SM SKC=

USA.gov is the U.S. government's official web portal to all federal, state and local government web resources and services.